Terminal Aerodrome Forecast
Issued by NWS

Home | Current Version | Previous Version | Text Only | Print | Product List | Glossary On
Versions: 1 2 3 4 5 6 7 8 9 10 11 12
000
FTUS46 KLOX 301700
TAFVNY
TAF
KVNY 301721Z 3018/3118 VRB03KT P6SM SKC
     FM302000 15007KT P6SM SKC
     FM310200 VRB03KT P6SM SKC=

USA.gov is the U.S. government's official web portal to all federal, state and local government web resources and services.